Time;durP1;ratioP1;P1;durP2;ratioP2;P2;SDS_P1;SDS_P2;PMS_P1;PMS_P2;Temp;Humidity;BMP_temperature;BMP_pressure;BME280_temperature;BME280_humidity;BME280_pressure;Samples;Min_cycle;Max_cycle;Signal;HPM_P1;HPM_P2
2023/05/09 00:00:19;;;;;;;12.40;5.55;;;12.20;44.60;;;;;;6127783;23;20511;-76
2023/05/09 00:02:45;;;;;;;11.27;5.85;;;12.20;44.60;;;;;;6152445;23;20063;-76
2023/05/09 00:05:11;;;;;;;15.80;5.70;;;12.10;44.50;;;;;;6178496;23;20013;-76
2023/05/09 00:07:37;;;;;;;9.95;5.25;;;12.10;44.40;;;;;;6179795;23;20009;-76
2023/05/09 00:10:04;;;;;;;11.20;5.10;;;12.10;44.60;;;;;;6178651;23;20821;-75
2023/05/09 00:12:30;;;;;;;11.20;5.20;;;12.10;44.80;;;;;;6152202;23;20017;-75
2023/05/09 00:14:56;;;;;;;16.88;6.00;;;12.10;44.80;;;;;;6178362;23;20021;-76
2023/05/09 00:17:22;;;;;;;12.63;5.63;;;12.10;44.80;;;;;;6152060;23;20088;-76
2023/05/09 00:19:49;;;;;;;11.73;6.13;;;12.10;44.70;;;;;;6178878;23;20412;-75
2023/05/09 00:22:22;;;;;;;11.38;5.90;;;12.10;44.80;;;;;;6178358;23;20055;-76
2023/05/09 00:24:49;;;;;;;15.35;6.90;;;12.10;44.70;;;;;;6178575;23;20036;-76
2023/05/09 00:27:15;;;;;;;13.68;6.30;;;12.10;45.10;;;;;;6178350;23;20345;-75
2023/05/09 00:29:41;;;;;;;12.15;6.38;;;12.00;45.30;;;;;;6127673;23;20032;-75
2023/05/09 00:32:08;;;;;;;11.20;6.50;;;12.00;45.50;;;;;;6126828;23;20020;-76
2023/05/09 00:34:34;;;;;;;12.35;6.88;;;12.00;45.60;;;;;;6152664;23;20220;-77
2023/05/09 00:37:00;;;;;;;14.82;7.00;;;12.00;45.90;;;;;;6152251;23;20111;-77
2023/05/09 00:39:26;;;;;;;14.07;7.20;;;11.90;45.50;;;;;;6151991;23;20551;-77
2023/05/09 00:41:54;;;;;;;15.02;7.10;;;11.90;45.50;;;;;;6152071;23;20025;-77
2023/05/09 00:44:20;;;;;;;16.15;7.05;;;12.00;45.60;;;;;;6152025;23;20445;-77
2023/05/09 00:46:46;;;;;;;15.93;6.55;;;11.90;45.50;;;;;;6178696;23;20009;-76
2023/05/09 00:49:12;;;;;;;12.25;6.78;;;11.90;45.60;;;;;;6127515;23;20080;-77
2023/05/09 00:51:40;;;;;;;9.88;6.25;;;11.80;45.90;;;;;;6127444;23;20029;-77
2023/05/09 00:54:06;;;;;;;10.75;5.90;;;11.80;45.70;;;;;;6152204;23;20040;-75
2023/05/09 00:56:33;;;;;;;10.27;6.10;;;11.80;45.60;;;;;;6152295;23;20100;-75
2023/05/09 00:58:59;;;;;;;10.20;5.80;;;11.80;45.40;;;;;;6152603;23;20009;-75
2023/05/09 01:01:25;;;;;;;12.02;6.55;;;11.80;45.70;;;;;;6178315;23;20025;-76
2023/05/09 01:03:52;;;;;;;11.95;6.55;;;11.80;45.80;;;;;;6178751;23;20028;-77
2023/05/09 01:06:47;;;;;;;13.50;6.43;;;11.80;46.10;;;;;;6153727;23;20029;-75
2023/05/09 01:09:44;;;;;;;14.05;6.35;;;11.80;46.00;;;;;;6153948;23;20025;-77
2023/05/09 01:12:31;;;;;;;11.13;6.20;;;11.70;46.10;;;;;;6153682;23;20021;-76
2023/05/09 01:15:28;;;;;;;14.40;7.03;;;11.80;46.50;;;;;;6153711;23;20051;-77
2023/05/09 01:18:08;;;;;;;;;;;11.80;46.40;;;;;;6173310;23;20021;-74
2023/05/09 01:20:38;;;;;;;12.30;6.38;;;11.70;46.50;;;;;;6129287;23;19912;-76
2023/05/09 01:23:16;;;;;;;13.82;7.07;;;11.70;46.70;;;;;;6153341;23;20025;-76
2023/05/09 01:26:11;;;;;;;13.88;7.03;;;11.70;46.60;;;;;;6154513;23;20016;-76
2023/05/09 01:28:55;;;;;;;13.35;7.78;;;11.60;46.60;;;;;;6178360;23;20484;-77
2023/05/09 01:31:23;;;;;;;13.80;6.72;;;11.60;46.60;;;;;;6179901;23;20037;-76
2023/05/09 01:33:53;;;;;;;12.68;6.75;;;11.60;46.70;;;;;;6179555;23;20028;-76
2023/05/09 01:36:21;;;;;;;12.68;6.57;;;11.60;46.70;;;;;;6179952;23;20111;-77
2023/05/09 01:38:50;;;;;;;14.05;7.63;;;11.60;46.60;;;;;;6153280;23;20100;-76
2023/05/09 01:41:18;;;;;;;14.63;7.18;;;11.60;46.80;;;;;;6153128;23;20500;-77
2023/05/09 01:43:46;;;;;;;10.98;6.40;;;11.60;47.00;;;;;;6154358;23;20032;-77
2023/05/09 01:46:13;;;;;;;14.02;6.88;;;11.50;47.20;;;;;;6179846;23;20109;-76
2023/05/09 01:48:41;;;;;;;12.52;6.50;;;11.50;47.30;;;;;;6179547;23;20079;-77
2023/05/09 01:51:08;;;;;;;13.05;6.43;;;11.50;47.40;;;;;;6153440;23;20056;-77
2023/05/09 01:53:34;;;;;;;10.73;6.40;;;11.50;47.20;;;;;;6179825;23;20412;-77
2023/05/09 01:56:03;;;;;;;11.85;6.18;;;11.50;47.10;;;;;;6153548;23;20013;-77
2023/05/09 01:58:32;;;;;;;13.18;6.32;;;11.50;46.90;;;;;;6153726;23;20012;-77
2023/05/09 02:01:00;;;;;;;11.05;6.22;;;11.50;46.90;;;;;;6128883;23;20546;-77
2023/05/09 02:03:26;;;;;;;12.30;6.55;;;11.50;46.90;;;;;;6179578;23;20025;-77
2023/05/09 02:05:55;;;;;;;12.52;6.45;;;11.50;47.00;;;;;;6153422;23;20021;-76
2023/05/09 02:08:22;;;;;;;13.07;6.75;;;11.50;47.00;;;;;;6179577;23;20025;-77
2023/05/09 02:10:48;;;;;;;13.88;6.68;;;11.50;46.90;;;;;;6153443;23;20027;-77
2023/05/09 02:13:15;;;;;;;14.30;6.88;;;11.60;47.10;;;;;;6153020;23;20021;-77
2023/05/09 02:15:42;;;;;;;14.77;6.40;;;11.60;47.10;;;;;;6153215;23;20043;-77
2023/05/09 02:18:08;;;;;;;15.57;6.07;;;11.70;47.30;;;;;;6152593;23;20600;-76
2023/05/09 02:20:34;;;;;;;9.15;5.88;;;11.80;47.40;;;;;;6128489;23;20560;-76
2023/05/09 02:23:01;;;;;;;16.98;6.25;;;11.80;47.50;;;;;;6152971;23;20043;-76
2023/05/09 02:25:27;;;;;;;16.38;6.43;;;11.80;47.20;;;;;;6179865;23;20032;-76
2023/05/09 02:27:56;;;;;;;14.57;6.47;;;11.90;46.70;;;;;;6152954;23;20104;-76
2023/05/09 02:30:24;;;;;;;14.73;6.57;;;12.00;46.50;;;;;;6152842;23;20032;-76
2023/05/09 02:33:01;;;;;;;11.07;6.45;;;12.10;46.30;;;;;;6152757;23;20028;-75
2023/05/09 02:35:27;;;;;;;15.43;6.97;;;12.20;46.50;;;;;;6128862;23;20155;-76
2023/05/09 02:37:54;;;;;;;13.30;6.97;;;12.30;46.50;;;;;;6153480;23;20009;-76
2023/05/09 02:40:21;;;;;;;12.40;5.95;;;12.40;46.60;;;;;;6153058;23;20020;-76
2023/05/09 02:42:47;;;;;;;12.88;6.10;;;12.50;46.70;;;;;;6179000;23;20126;-76
2023/05/09 02:45:13;;;;;;;8.48;5.82;;;12.60;46.80;;;;;;6177722;23;20540;-75
2023/05/09 02:47:39;;;;;;;10.05;6.60;;;12.70;46.80;;;;;;6152479;23;20021;-75
2023/05/09 02:50:06;;;;;;;11.93;6.20;;;12.70;46.70;;;;;;6179035;23;20004;-74
2023/05/09 02:52:34;;;;;;;14.45;5.72;;;12.70;46.60;;;;;;6179561;23;20088;-75
2023/05/09 02:55:00;;;;;;;13.23;6.68;;;12.70;46.50;;;;;;6128546;23;20112;-76
2023/05/09 02:57:26;;;;;;;12.65;6.60;;;12.70;46.60;;;;;;6152789;23;20017;-74
2023/05/09 02:59:52;;;;;;;16.63;6.47;;;12.70;46.70;;;;;;6153030;23;20021;-75
2023/05/09 03:02:17;;;;;;;11.90;6.70;;;12.70;46.50;;;;;;6152563;23;20487;-75
2023/05/09 03:04:44;;;;;;;11.52;6.20;;;12.70;46.20;;;;;;6128037;23;20105;-75
2023/05/09 03:07:11;;;;;;;11.48;6.28;;;12.70;46.00;;;;;;6152739;23;20067;-75
2023/05/09 03:09:37;;;;;;;13.77;6.90;;;12.70;45.90;;;;;;6177176;23;20476;-75
2023/05/09 03:12:03;;;;;;;12.43;6.47;;;12.70;46.00;;;;;;6152391;23;20617;-75
2023/05/09 03:14:30;;;;;;;12.60;6.63;;;12.70;46.10;;;;;;6152303;23;20047;-75
2023/05/09 03:16:56;;;;;;;12.45;6.93;;;12.70;46.00;;;;;;6153546;23;20021;-75
2023/05/09 03:19:27;;;;;;;10.30;6.13;;;12.70;45.90;;;;;;6127928;23;20100;-75
2023/05/09 03:21:53;;;;;;;13.82;6.95;;;12.70;45.80;;;;;;6152596;23;20017;-77
2023/05/09 03:24:20;;;;;;;12.90;6.55;;;12.70;45.70;;;;;;6152474;23;20364;-75
2023/05/09 03:26:46;;;;;;;11.93;6.30;;;12.70;45.60;;;;;;6152657;23;20372;-76
2023/05/09 03:29:12;;;;;;;13.07;6.88;;;12.80;45.50;;;;;;6152013;23;20009;-75
2023/05/09 03:31:38;;;;;;;14.23;7.53;;;12.80;45.50;;;;;;6153093;23;20021;-76
2023/05/09 03:34:04;;;;;;;12.63;7.15;;;12.80;45.40;;;;;;6152526;23;20033;-75
2023/05/09 03:36:31;;;;;;;17.63;7.95;;;12.80;45.60;;;;;;6178898;23;20023;-75
2023/05/09 03:38:58;;;;;;;14.57;7.72;;;12.80;45.60;;;;;;6152618;23;20024;-76
2023/05/09 03:41:24;;;;;;;15.02;7.53;;;12.80;45.50;;;;;;6152215;23;20020;-76
2023/05/09 03:43:51;;;;;;;15.02;8.38;;;12.80;45.50;;;;;;6128620;23;20071;-75
2023/05/09 03:46:17;;;;;;;17.77;8.50;;;12.80;45.40;;;;;;6152471;23;20104;-76
2023/05/09 03:48:45;;;;;;;17.88;8.18;;;12.80;45.40;;;;;;6152548;23;20360;-76
2023/05/09 03:51:11;;;;;;;14.73;8.15;;;12.80;45.40;;;;;;6127740;23;20032;-75
2023/05/09 03:53:40;;;;;;;16.05;8.23;;;12.90;45.30;;;;;;6127563;23;20091;-76
2023/05/09 03:56:07;;;;;;;14.77;7.50;;;13.00;45.20;;;;;;6128075;23;20096;-76
2023/05/09 03:58:39;;;;;;;15.15;8.43;;;13.20;45.00;;;;;;6153223;23;20013;-76
2023/05/09 04:01:05;;;;;;;14.40;8.38;;;13.40;44.60;;;;;;6152031;23;20048;-75
2023/05/09 04:03:31;;;;;;;14.40;7.68;;;13.70;44.30;;;;;;6151889;23;20020;-76
2023/05/09 04:05:58;;;;;;;12.18;7.05;;;14.00;43.90;;;;;;6151933;23;20373;-76
2023/05/09 04:08:37;;;;;;;11.70;6.53;;;14.20;43.50;;;;;;6176979;23;20025;-76
2023/05/09 04:11:04;;;;;;;13.65;6.90;;;14.60;42.90;;;;;;6151958;23;20468;-77
2023/05/09 04:13:32;;;;;;;11.07;6.47;;;14.80;42.40;;;;;;6152444;23;20005;-76
2023/05/09 04:16:01;;;;;;;11.02;6.43;;;15.10;42.10;;;;;;6151994;23;20367;-76
2023/05/09 04:18:30;;;;;;;11.93;6.88;;;15.40;41.70;;;;;;6152256;23;20017;-76
2023/05/09 04:20:56;;;;;;;10.93;6.65;;;15.70;41.30;;;;;;6177123;23;20025;-77
2023/05/09 04:23:22;;;;;;;10.30;6.85;;;15.90;41.00;;;;;;6151794;23;20025;-76
2023/05/09 04:25:50;;;;;;;9.50;6.60;;;16.20;40.70;;;;;;6153383;23;20021;-76
2023/05/09 04:28:16;;;;;;;8.32;5.88;;;16.40;40.40;;;;;;6126983;23;20075;-76
2023/05/09 04:30:42;;;;;;;9.38;5.68;;;16.60;40.10;;;;;;6151953;23;20029;-76
2023/05/09 04:33:09;;;;;;;10.65;6.18;;;16.80;40.00;;;;;;6177068;23;20480;-76
2023/05/09 04:35:35;;;;;;;7.50;5.75;;;17.00;39.80;;;;;;6178390;23;20075;-76
2023/05/09 04:38:01;;;;;;;8.35;4.93;;;17.20;39.60;;;;;;6178493;23;20048;-76
2023/05/09 04:40:27;;;;;;;8.00;5.53;;;17.40;39.50;;;;;;6104919;23;20012;-77
2023/05/09 04:42:57;;;;;;;8.27;5.28;;;17.60;39.30;;;;;;6180136;23;20127;-75
2023/05/09 04:45:26;;;;;;;10.05;5.00;;;17.80;39.10;;;;;;6128896;23;20535;-78
2023/05/09 04:47:53;;;;;;;8.25;4.60;;;18.00;39.40;;;;;;6154140;23;20028;-78
2023/05/09 04:50:19;;;;;;;6.03;4.35;;;18.30;38.70;;;;;;6153765;23;20364;-77
2023/05/09 04:52:44;;;;;;;7.05;4.30;;;18.50;38.50;;;;;;6180741;23;20088;-77
2023/05/09 04:55:11;;;;;;;6.45;4.22;;;18.70;38.20;;;;;;6153930;23;20543;-78
2023/05/09 04:57:41;;;;;;;7.15;4.03;;;18.90;38.10;;;;;;6153515;23;20035;-76
2023/05/09 05:00:10;;;;;;;5.97;4.35;;;19.10;38.00;;;;;;6153953;23;20481;-77
2023/05/09 05:02:37;;;;;;;9.30;4.35;;;19.20;37.80;;;;;;6129335;23;20361;-76
2023/05/09 05:05:03;;;;;;;6.22;3.92;;;19.30;37.70;;;;;;6153767;23;20446;-77
2023/05/09 05:07:31;;;;;;;5.90;3.55;;;19.50;37.70;;;;;;6154579;23;20009;-77
2023/05/09 05:09:58;;;;;;;6.22;3.42;;;19.70;37.70;;;;;;6153882;23;20476;-77
2023/05/09 05:12:24;;;;;;;6.07;3.47;;;19.80;37.50;;;;;;6153701;23;20080;-76
2023/05/09 05:14:51;;;;;;;5.30;3.25;;;19.90;38.00;;;;;;6154120;23;20017;-77
2023/05/09 05:17:20;;;;;;;8.23;3.25;;;20.10;37.40;;;;;;6154153;23;20023;-77
2023/05/09 05:19:46;;;;;;;4.57;2.72;;;20.20;37.30;;;;;;6129681;23;20016;-76
2023/05/09 05:22:13;;;;;;;2.50;2.30;;;20.30;37.30;;;;;;6153568;23;20025;-76
2023/05/09 05:24:42;;;;;;;3.35;2.50;;;20.50;37.10;;;;;;6153613;23;20024;-76
2023/05/09 05:27:08;;;;;;;3.97;2.30;;;20.70;37.00;;;;;;6153350;23;20028;-76
2023/05/09 05:29:34;;;;;;;3.45;2.30;;;20.80;36.80;;;;;;6153552;23;20021;-77
2023/05/09 05:32:00;;;;;;;5.22;2.47;;;21.00;36.80;;;;;;6178929;23;20099;-76
2023/05/09 05:34:26;;;;;;;4.10;2.00;;;21.20;36.60;;;;;;6179900;23;20017;-78
2023/05/09 05:36:52;;;;;;;5.25;2.03;;;21.30;36.40;;;;;;6153104;23;20017;-78
2023/05/09 05:39:18;;;;;;;3.20;2.20;;;21.50;36.30;;;;;;6153501;23;20028;-77
2023/05/09 05:41:44;;;;;;;2.58;2.25;;;21.70;36.10;;;;;;6153004;23;20035;-77
2023/05/09 05:44:10;;;;;;;4.35;2.10;;;21.90;35.90;;;;;;6152554;23;20019;-76
2023/05/09 05:46:37;;;;;;;2.38;1.83;;;22.10;35.80;;;;;;6154015;23;20013;-76
2023/05/09 05:49:04;;;;;;;2.05;1.60;;;22.30;35.50;;;;;;6152964;23;20069;-75
2023/05/09 05:51:30;;;;;;;2.55;1.83;;;22.50;35.40;;;;;;6152969;23;20025;-75
2023/05/09 05:53:57;;;;;;;2.40;1.45;;;22.70;35.30;;;;;;6153457;23;20133;-76
2023/05/09 05:56:25;;;;;;;1.35;1.15;;;22.90;35.90;;;;;;6128506;23;20013;-75
2023/05/09 05:58:51;;;;;;;1.88;1.30;;;23.00;35.20;;;;;;6129326;23;20153;-75
2023/05/09 06:01:18;;;;;;;1.33;1.05;;;23.00;35.10;;;;;;6153602;23;20029;-75
2023/05/09 06:03:44;;;;;;;1.20;1.10;;;23.00;35.00;;;;;;6153325;23;20524;-75
2023/05/09 06:06:10;;;;;;;1.25;1.15;;;23.10;35.10;;;;;;6153350;23;20021;-76
2023/05/09 06:08:36;;;;;;;2.83;1.00;;;23.30;35.00;;;;;;6153179;23;20408;-77
2023/05/09 06:11:02;;;;;;;0.75;0.75;;;23.30;34.80;;;;;;6152880;23;20028;-78
2023/05/09 06:13:28;;;;;;;0.88;0.80;;;23.40;34.80;;;;;;6153658;23;20008;-77
2023/05/09 06:16:00;;;;;;;0.80;0.80;;;23.40;34.70;;;;;;6153177;23;20020;-77
2023/05/09 06:18:26;;;;;;;1.90;0.80;;;23.50;34.70;;;;;;6179229;23;20144;-76
2023/05/09 06:20:53;;;;;;;0.80;0.80;;;23.70;34.80;;;;;;6179547;23;20020;-76
2023/05/09 06:23:21;;;;;;;0.93;0.80;;;23.70;34.70;;;;;;6179096;23;20027;-76
2023/05/09 06:25:48;;;;;;;0.65;0.60;;;23.80;34.70;;;;;;6153721;23;20079;-76
2023/05/09 06:28:14;;;;;;;1.27;0.70;;;23.90;34.60;;;;;;6128833;23;20021;-77
2023/05/09 06:30:43;;;;;;;0.50;0.40;;;24.00;34.50;;;;;;6129096;23;20025;-77
2023/05/09 06:33:09;;;;;;;1.45;0.90;;;24.00;34.40;;;;;;6179370;23;20040;-76
2023/05/09 06:35:35;;;;;;;1.50;0.70;;;24.10;34.40;;;;;;6103864;23;20024;-77
2023/05/09 06:38:01;;;;;;;0.98;0.88;;;24.20;34.40;;;;;;6152980;23;20009;-77
2023/05/09 06:40:27;;;;;;;0.88;0.68;;;24.30;34.40;;;;;;6153773;23;20009;-78
2023/05/09 06:42:53;;;;;;;1.20;0.60;;;24.40;34.40;;;;;;6178967;23;20021;-77
2023/05/09 06:45:19;;;;;;;1.15;0.63;;;24.40;34.50;;;;;;6152931;23;20017;-75
2023/05/09 06:47:45;;;;;;;2.47;0.80;;;24.60;34.50;;;;;;6179084;23;20016;-74
2023/05/09 06:50:11;;;;;;;0.73;0.68;;;24.60;32.80;;;;;;6179306;23;20005;-74
2023/05/09 06:52:37;;;;;;;0.68;0.68;;;24.60;30.00;;;;;;6179480;23;20016;-74
2023/05/09 06:55:03;;;;;;;2.22;0.82;;;24.60;29.90;;;;;;6178927;23;20036;-77
2023/05/09 06:57:29;;;;;;;1.55;0.80;;;24.60;28.70;;;;;;6178861;23;20424;-77
2023/05/09 06:59:55;;;;;;;1.08;0.70;;;24.30;28.30;;;;;;6182119;23;20028;-78
2023/05/09 07:02:21;;;;;;;0.77;0.77;;;24.10;28.40;;;;;;6179678;23;20508;-77
2023/05/09 07:04:47;;;;;;;1.00;0.82;;;23.90;28.60;;;;;;6178996;23;20012;-75
2023/05/09 07:07:13;;;;;;;1.00;0.80;;;23.70;28.50;;;;;;6178881;23;20021;-76
2023/05/09 07:09:39;;;;;;;2.30;0.95;;;23.40;28.60;;;;;;6178807;23;20472;-76
2023/05/09 07:12:05;;;;;;;4.88;1.10;;;23.20;28.70;;;;;;6178197;23;20051;-76
2023/05/09 07:14:31;;;;;;;1.80;1.10;;;23.10;28.70;;;;;;6151710;23;20108;-76
2023/05/09 07:16:57;;;;;;;2.85;1.25;;;22.90;28.60;;;;;;6179368;23;20021;-77
2023/05/09 07:19:23;;;;;;;3.60;1.10;;;22.90;28.50;;;;;;6152208;23;20021;-76
2023/05/09 07:21:49;;;;;;;2.97;1.10;;;23.00;28.60;;;;;;6178331;23;20079;-76
2023/05/09 07:24:15;;;;;;;1.88;0.98;;;22.70;28.30;;;;;;6179073;23;20023;-78
2023/05/09 07:26:41;;;;;;;1.23;0.95;;;22.60;28.30;;;;;;6177837;23;20435;-78
2023/05/09 07:29:07;;;;;;;1.38;0.80;;;22.40;28.10;;;;;;6178105;23;20009;-75
2023/05/09 07:31:33;;;;;;;1.67;1.10;;;22.20;28.20;;;;;;6179372;23;20020;-78
2023/05/09 07:33:58;;;;;;;0.70;0.70;;;21.90;28.10;;;;;;6152449;23;20025;-75
2023/05/09 07:36:24;;;;;;;2.50;1.00;;;21.80;28.20;;;;;;6177995;23;20021;-77
2023/05/09 07:38:51;;;;;;;1.35;1.00;;;21.60;28.40;;;;;;6178169;23;20013;-79
2023/05/09 07:41:18;;;;;;;1.38;0.93;;;21.50;28.50;;;;;;6178690;23;20389;-78
2023/05/09 07:43:44;;;;;;;0.93;0.90;;;21.40;28.70;;;;;;6179628;23;20066;-79
2023/05/09 07:46:10;;;;;;;2.60;1.00;;;21.30;28.80;;;;;;6178581;23;20032;-79
2023/05/09 07:48:36;;;;;;;0.85;0.80;;;21.20;28.90;;;;;;6178130;23;20024;-76
2023/05/09 07:51:02;;;;;;;1.20;1.00;;;21.10;28.80;;;;;;6178376;23;20031;-76
2023/05/09 07:53:28;;;;;;;1.35;0.95;;;21.00;29.00;;;;;;6151891;23;20021;-77
2023/05/09 07:55:54;;;;;;;1.05;0.90;;;20.90;29.10;;;;;;6179253;23;20016;-76
2023/05/09 07:58:20;;;;;;;2.17;0.98;;;20.80;29.10;;;;;;6178135;23;20071;-77
2023/05/09 08:00:46;;;;;;;1.23;1.00;;;20.90;29.10;;;;;;6178084;23;20025;-76
2023/05/09 08:03:12;;;;;;;1.42;1.15;;;21.00;29.20;;;;;;6151723;23;20023;-77
2023/05/09 08:05:38;;;;;;;2.13;0.90;;;21.00;29.40;;;;;;6178371;23;20784;-75
2023/05/09 08:08:04;;;;;;;1.15;0.90;;;21.00;29.20;;;;;;6178286;23;20020;-75
2023/05/09 08:10:32;;;;;;;3.17;1.10;;;20.90;29.00;;;;;;6178493;23;20100;-75
2023/05/09 08:12:58;;;;;;;1.38;0.80;;;20.90;29.00;;;;;;6177978;23;20021;-76
2023/05/09 08:15:24;;;;;;;1.92;0.90;;;20.80;29.20;;;;;;6179775;23;20027;-78
2023/05/09 08:17:50;;;;;;;1.13;0.90;;;20.70;29.00;;;;;;6180383;23;20472;-76
2023/05/09 08:20:16;;;;;;;1.58;0.90;;;20.50;28.90;;;;;;6180363;23;20016;-76
2023/05/09 08:22:42;;;;;;;1.27;0.95;;;20.40;28.90;;;;;;6180709;23;20409;-74
2023/05/09 08:25:08;;;;;;;1.30;1.10;;;20.40;28.70;;;;;;6180094;23;20107;-73
2023/05/09 08:27:34;;;;;;;2.45;1.10;;;20.30;28.70;;;;;;6180076;23;20021;-74
2023/05/09 08:30:00;;;;;;;1.80;1.25;;;20.20;28.70;;;;;;6154048;23;20483;-73
2023/05/09 08:32:26;;;;;;;1.77;1.05;;;20.10;28.80;;;;;;6153692;23;20879;-73
2023/05/09 08:34:52;;;;;;;1.30;1.20;;;20.10;28.80;;;;;;6180628;23;20017;-74
2023/05/09 08:37:18;;;;;;;2.70;0.90;;;20.00;28.90;;;;;;6154007;23;20096;-75
2023/05/09 08:39:44;;;;;;;1.13;1.00;;;20.00;28.90;;;;;;6180322;23;20021;-73
2023/05/09 08:42:11;;;;;;;1.02;0.90;;;19.90;28.90;;;;;;6179948;23;20013;-73
2023/05/09 08:44:37;;;;;;;1.23;1.10;;;19.90;28.90;;;;;;6180563;23;20746;-75
2023/05/09 08:47:03;;;;;;;2.28;1.05;;;20.00;29.10;;;;;;6180009;23;20020;-75
2023/05/09 08:49:30;;;;;;;1.08;0.98;;;20.00;29.20;;;;;;6153956;23;20005;-75
2023/05/09 08:51:56;;;;;;;0.98;0.90;;;19.90;29.00;;;;;;6180036;23;20021;-73
2023/05/09 08:54:23;;;;;;;1.35;1.20;;;19.90;28.90;;;;;;6179803;23;20095;-75
2023/05/09 08:56:50;;;;;;;1.20;1.10;;;19.80;29.00;;;;;;6179469;23;20064;-75
2023/05/09 08:59:17;;;;;;;1.55;1.17;;;19.70;29.00;;;;;;6179713;23;20035;-74
2023/05/09 09:01:43;;;;;;;2.50;1.40;;;19.70;29.10;;;;;;6180486;23;20541;-74
2023/05/09 09:04:12;;;;;;;1.67;1.35;;;19.60;29.00;;;;;;6154126;23;20040;-76
2023/05/09 09:06:39;;;;;;;1.77;1.10;;;19.60;28.90;;;;;;6153530;23;20029;-78
2023/05/09 09:09:09;;;;;;;2.92;1.15;;;19.60;29.00;;;;;;6179395;23;20532;-76
2023/05/09 09:11:36;;;;;;;1.55;1.23;;;19.50;29.10;;;;;;6180080;23;20485;-75
2023/05/09 09:14:12;;;;;;;1.40;1.08;;;19.50;29.30;;;;;;6180240;23;20019;-75
2023/05/09 09:16:40;;;;;;;0.95;0.88;;;19.50;29.40;;;;;;6179713;23;20024;-75
2023/05/09 09:19:11;;;;;;;1.30;1.10;;;19.50;29.70;;;;;;6179640;23;20028;-76
2023/05/09 09:21:39;;;;;;;1.90;1.10;;;19.50;29.70;;;;;;6153270;23;20028;-75
2023/05/09 09:24:07;;;;;;;1.20;0.98;;;19.50;29.60;;;;;;6152725;23;20021;-76
2023/05/09 09:26:33;;;;;;;7.85;1.40;;;19.40;29.80;;;;;;6152516;23;20015;-78
2023/05/09 09:28:59;;;;;;;1.80;1.20;;;19.40;29.90;;;;;;6129663;23;20095;-77
2023/05/09 09:31:27;;;;;;;1.83;1.15;;;19.40;29.40;;;;;;6177356;23;20542;-76
2023/05/09 09:34:02;;;;;;;2.83;1.10;;;19.30;29.20;;;;;;6152701;23;20432;-76
2023/05/09 09:36:29;;;;;;;;;;;19.20;29.20;;;;;;6129275;23;20451;-75
2023/05/09 09:38:59;;;;;;;3.60;1.00;;;19.20;29.20;;;;;;6179484;23;19978;-76
2023/05/09 09:41:33;;;;;;;3.95;0.90;;;19.10;29.20;;;;;;6152897;23;20518;-74
2023/05/09 09:44:05;;;;;;;1.27;1.15;;;19.10;29.50;;;;;;6179991;23;20067;-77
2023/05/09 09:46:44;;;;;;;3.60;1.10;;;19.10;29.60;;;;;;6153274;23;20020;-76
2023/05/09 09:49:14;;;;;;;2.10;1.08;;;19.10;29.80;;;;;;6179427;23;20021;-75
2023/05/09 09:51:41;;;;;;;1.88;1.13;;;19.10;29.80;;;;;;6179251;23;20033;-75
2023/05/09 09:54:08;;;;;;;1.40;1.20;;;19.10;29.80;;;;;;6153025;23;20096;-75
2023/05/09 09:56:41;;;;;;;3.22;1.20;;;19.10;29.80;;;;;;6178943;23;20040;-75
2023/05/09 09:59:12;;;;;;;1.23;1.10;;;19.10;29.70;;;;;;6152864;23;20013;-75
2023/05/09 10:02:00;;;;;;;1.50;1.05;;;19.10;29.50;;;;;;6152823;23;20448;-75
2023/05/09 10:04:31;;;;;;;1.33;1.10;;;19.10;29.60;;;;;;6104012;23;20484;-75
2023/05/09 10:06:59;;;;;;;1.45;1.20;;;19.10;29.70;;;;;;6153031;23;20029;-75
2023/05/09 10:09:26;;;;;;;1.17;1.08;;;19.10;29.90;;;;;;6152817;23;20028;-75
2023/05/09 10:11:53;;;;;;;3.15;1.30;;;19.10;29.70;;;;;;6128649;23;20025;-75
2023/05/09 10:14:22;;;;;;;1.67;1.30;;;19.10;29.70;;;;;;6152703;23;20408;-75
2023/05/09 10:16:50;;;;;;;1.23;1.13;;;19.10;29.60;;;;;;6128362;23;20156;-75
2023/05/09 10:19:20;;;;;;;4.75;1.73;;;19.00;29.50;;;;;;6179580;23;20031;-76
2023/05/09 10:21:57;;;;;;;3.75;1.20;;;19.10;29.60;;;;;;6179337;23;20020;-76
2023/05/09 10:24:31;;;;;;;8.57;1.27;;;19.00;30.00;;;;;;6153053;23;20021;-75
2023/05/09 10:27:05;;;;;;;3.63;1.00;;;19.00;30.20;;;;;;6152735;23;20403;-76
2023/05/09 10:29:48;;;;;;;5.47;1.05;;;19.00;30.40;;;;;;6128283;23;20471;-76
2023/05/09 10:32:19;;;;;;;11.85;1.98;;;19.00;30.50;;;;;;6152317;23;20067;-76
2023/05/09 10:34:51;;;;;;;6.80;2.10;;;18.90;30.70;;;;;;6179268;23;20092;-76
2023/05/09 10:37:19;;;;;;;4.78;1.20;;;18.90;30.70;;;;;;6177609;23;20388;-75
2023/05/09 10:39:46;;;;;;;3.20;1.13;;;18.90;30.80;;;;;;6152691;23;20262;-75
2023/05/09 10:42:13;;;;;;;2.67;1.05;;;18.90;30.70;;;;;;6128062;23;20036;-75
2023/05/09 10:44:39;;;;;;;2.58;1.23;;;18.90;30.80;;;;;;6178957;23;20409;-75
2023/05/09 10:47:05;;;;;;;3.15;1.27;;;18.90;30.60;;;;;;6152466;23;20012;-75
2023/05/09 10:49:32;;;;;;;4.95;1.30;;;18.90;30.90;;;;;;6153266;23;20067;-76
2023/05/09 10:51:57;;;;;;;2.60;1.40;;;18.90;30.80;;;;;;6152371;23;20021;-75
2023/05/09 10:54:30;;;;;;;2.95;1.20;;;18.90;31.00;;;;;;6178913;23;20027;-75
2023/05/09 10:56:56;;;;;;;4.47;1.30;;;18.90;30.60;;;;;;6179299;23;20013;-75
2023/05/09 10:59:42;;;;;;;1.40;1.30;;;18.90;30.50;;;;;;6152391;23;20065;-75
2023/05/09 11:02:19;;;;;;;3.25;1.20;;;18.90;30.80;;;;;;6178705;23;20096;-75
2023/05/09 11:04:45;;;;;;;7.82;1.55;;;18.90;30.60;;;;;;6179544;23;20361;-76
2023/05/09 11:07:26;;;;;;;6.35;1.60;;;18.90;30.50;;;;;;6152558;23;20025;-76
2023/05/09 11:10:18;;;;;;;3.38;1.35;;;18.90;30.80;;;;;;6152531;23;20381;-76
2023/05/09 11:12:57;;;;;;;3.53;1.10;;;18.90;31.00;;;;;;6166499;23;20025;-77
2023/05/09 11:15:23;;;;;;;3.22;1.10;;;18.90;30.90;;;;;;6152279;23;20031;-76
2023/05/09 11:18:06;;;;;;;7.60;1.60;;;18.90;30.90;;;;;;6178641;23;20044;-76
2023/05/09 11:20:41;;;;;;;3.65;1.60;;;18.90;30.60;;;;;;6178469;23;20496;-76
2023/05/09 11:23:09;;;;;;;;;;;18.90;30.70;;;;;;6178524;23;20016;-76
2023/05/09 11:25:35;;;;;;;3.08;1.40;;;18.90;30.70;;;;;;6179215;23;20259;-76
2023/05/09 11:28:01;;;;;;;4.90;1.58;;;18.90;30.00;;;;;;6151732;23;20111;-76
2023/05/09 11:30:42;;;;;;;4.65;1.23;;;18.80;29.90;;;;;;6178664;23;20127;-76
2023/05/09 11:33:26;;;;;;;2.90;1.38;;;18.80;29.90;;;;;;6178784;23;20025;-76
2023/05/09 11:36:18;;;;;;;2.35;1.38;;;18.80;29.80;;;;;;6178960;23;20036;-76
2023/05/09 11:38:58;;;;;;;1.40;1.30;;;18.80;29.80;;;;;;6151931;23;20113;-76
2023/05/09 11:41:25;;;;;;;2.05;1.08;;;18.70;29.70;;;;;;6178316;23;20365;-76
2023/05/09 11:43:52;;;;;;;1.65;1.50;;;18.70;29.80;;;;;;6152780;23;20013;-76
2023/05/09 11:46:17;;;;;;;2.00;1.60;;;18.70;29.90;;;;;;6179264;23;20021;-76
2023/05/09 11:48:43;;;;;;;3.72;1.55;;;18.70;29.90;;;;;;6177074;23;20124;-75
2023/05/09 11:51:22;;;;;;;1.85;1.60;;;18.60;29.90;;;;;;6178346;23;20049;-76
2023/05/09 11:53:52;;;;;;;1.73;1.60;;;18.60;30.00;;;;;;6127638;23;20056;-76
2023/05/09 11:56:19;;;;;;;1.95;1.48;;;18.50;29.90;;;;;;6152259;23;20012;-76
2023/05/09 11:58:45;;;;;;;2.80;1.80;;;18.50;29.80;;;;;;6179252;23;20441;-75
2023/05/09 12:01:11;;;;;;;1.40;1.30;;;18.40;29.90;;;;;;6178627;23;20024;-75
2023/05/09 12:03:44;;;;;;;3.53;1.63;;;18.40;30.00;;;;;;6178393;23;20079;-77
2023/05/09 12:06:15;;;;;;;2.22;1.60;;;18.40;30.00;;;;;;6177111;23;20272;-76
2023/05/09 12:08:41;;;;;;;2.08;1.70;;;18.40;30.40;;;;;;6152450;23;20017;-77
2023/05/09 12:11:08;;;;;;;1.52;1.42;;;18.40;30.40;;;;;;6152107;23;20300;-75
2023/05/09 12:13:37;;;;;;;1.73;1.50;;;18.40;30.50;;;;;;6178277;23;20017;-77
2023/05/09 12:16:03;;;;;;;2.28;1.40;;;18.40;30.20;;;;;;6177187;23;20021;-77
2023/05/09 12:18:29;;;;;;;2.58;1.60;;;18.40;30.00;;;;;;6178410;23;20025;-76
2023/05/09 12:20:55;;;;;;;3.78;1.60;;;18.30;30.00;;;;;;6178694;23;20531;-77
2023/05/09 12:23:22;;;;;;;1.85;1.75;;;18.30;29.90;;;;;;6178745;23;20100;-77
2023/05/09 12:25:52;;;;;;;1.60;1.50;;;18.20;29.80;;;;;;6177139;23;20024;-75
2023/05/09 12:28:23;;;;;;;1.63;1.30;;;18.20;29.80;;;;;;6151685;23;20174;-75
2023/05/09 12:30:50;;;;;;;2.45;1.52;;;18.10;29.80;;;;;;6178285;23;20029;-75
2023/05/09 12:33:16;;;;;;;5.55;1.50;;;18.20;29.90;;;;;;6178338;23;20105;-75
2023/05/09 12:35:47;;;;;;;1.95;1.50;;;18.10;29.90;;;;;;6178312;23;20013;-75
2023/05/09 12:38:22;;;;;;;2.72;1.60;;;18.10;30.00;;;;;;6178580;23;20348;-75
2023/05/09 12:40:58;;;;;;;4.65;1.98;;;18.20;30.00;;;;;;6152627;23;20034;-76
2023/05/09 12:43:24;;;;;;;1.60;1.50;;;18.20;30.40;;;;;;6178028;23;20101;-77
2023/05/09 12:45:53;;;;;;;1.50;1.40;;;18.10;30.40;;;;;;6178184;23;20552;-76
2023/05/09 12:48:25;;;;;;;2.47;1.60;;;18.20;30.50;;;;;;6178316;23;20017;-77